createdAt,value
2017-11-28T00:02:07.825Z,97.10
2017-11-28T00:04:35.248Z,97.10
2017-11-28T00:07:03.435Z,97.30
2017-11-28T00:09:31.622Z,96.80
2017-11-28T00:11:59.033Z,96.80
2017-11-28T00:14:26.460Z,97.00
2017-11-28T00:16:53.885Z,96.90
2017-11-28T00:19:22.065Z,96.90
2017-11-28T00:21:49.510Z,96.90
2017-11-28T00:24:17.708Z,97.00
2017-11-28T00:26:45.120Z,97.00
2017-11-28T00:29:12.545Z,97.00
2017-11-28T00:31:39.968Z,97.40
2017-11-28T00:34:07.390Z,97.20
2017-11-28T00:36:34.830Z,97.10
2017-11-28T00:39:02.235Z,97.50
2017-11-28T00:41:29.653Z,97.20
2017-11-28T00:43:57.090Z,97.10
2017-11-28T00:46:24.521Z,97.10
2017-11-28T00:48:51.929Z,97.30
2017-11-28T00:51:19.362Z,97.30
2017-11-28T00:53:46.774Z,97.20
2017-11-28T00:56:14.196Z,97.20
2017-11-28T00:58:41.612Z,97.60
2017-11-28T01:01:09.033Z,97.90
2017-11-28T01:03:37.218Z,98.30
2017-11-28T01:06:04.645Z,98.00
2017-11-28T01:08:32.057Z,98.20
2017-11-28T01:10:59.517Z,98.40
2017-11-28T01:13:26.918Z,98.40
2017-11-28T01:15:54.333Z,98.30
2017-11-28T01:18:21.760Z,98.50
2017-11-28T01:20:49.187Z,98.70
2017-11-28T01:23:16.594Z,98.90
2017-11-28T01:25:44.021Z,98.80
2017-11-28T01:28:12.205Z,98.80
2017-11-28T01:30:39.624Z,98.80
2017-11-28T01:33:07.041Z,99.00
2017-11-28T01:35:34.477Z,98.90
2017-11-28T01:38:02.650Z,99.30
2017-11-28T01:40:30.085Z,99.30
2017-11-28T01:42:58.272Z,99.00
2017-11-28T01:45:25.703Z,99.00
2017-11-28T01:47:53.110Z,99.00
2017-11-28T01:50:20.533Z,98.90
2017-11-28T01:52:48.722Z,98.80
2017-11-28T01:55:16.144Z,98.70
2017-11-28T01:57:43.581Z,98.90
2017-11-28T02:00:11.026Z,99.20
2017-11-28T02:02:38.448Z,98.80
2017-11-28T02:05:05.865Z,98.70
2017-11-28T02:07:33.289Z,99.00
2017-11-28T02:10:00.706Z,99.00
2017-11-28T02:12:28.902Z,99.00
2017-11-28T02:14:56.318Z,99.10
2017-11-28T02:17:23.749Z,99.10
2017-11-28T02:19:51.179Z,98.90
2017-11-28T02:22:18.596Z,99.20
2017-11-28T02:24:46.793Z,99.40
2017-11-28T02:27:14.973Z,99.20
2017-11-28T02:29:42.401Z,99.20
2017-11-28T02:32:09.826Z,99.20
2017-11-28T02:34:37.241Z,99.50
2017-11-28T02:37:04.669Z,99.20
2017-11-28T02:39:32.086Z,99.40
2017-11-28T02:41:59.507Z,99.30
2017-11-28T02:44:26.917Z,99.20
2017-11-28T02:46:54.341Z,99.20
2017-11-28T02:49:28.339Z,99.40
2017-11-28T02:52:08.506Z,99.50
2017-11-28T02:54:53.525Z,99.80
2017-11-28T02:57:20.960Z,99.50
2017-11-28T02:59:51.060Z,99.60
2017-11-28T03:02:18.477Z,99.40
2017-11-28T03:04:46.668Z,99.80
2017-11-28T03:07:14.085Z,99.80
2017-11-28T03:09:57.785Z,99.60
2017-11-28T03:12:28.546Z,99.50
2017-11-28T03:15:00.419Z,99.80
2017-11-28T03:17:27.830Z,99.90
2017-11-28T03:19:58.077Z,99.90
2017-11-28T03:22:37.740Z,99.80
2017-11-28T03:25:13.870Z,99.90
2017-11-28T03:27:41.285Z,99.90
2017-11-28T03:30:10.092Z,99.90
2017-11-28T03:32:37.505Z,99.90
2017-11-28T03:35:04.941Z,99.90
2017-11-28T03:37:32.349Z,99.90
2017-11-28T03:39:59.773Z,99.90
2017-11-28T03:42:27.189Z,99.90
2017-11-28T03:44:59.180Z,99.90
2017-11-28T03:47:26.602Z,99.90
2017-11-28T03:49:54.025Z,99.90
2017-11-28T03:52:22.213Z,99.90
2017-11-28T03:54:49.635Z,99.90
2017-11-28T03:57:17.061Z,99.90
2017-11-28T03:59:44.499Z,99.90
2017-11-28T04:02:11.908Z,99.90
2017-11-28T04:04:39.366Z,99.90
2017-11-28T04:07:06.780Z,99.90
2017-11-28T04:09:34.210Z,99.90
2017-11-28T04:12:01.624Z,99.90
2017-11-28T04:14:32.772Z,99.90
2017-11-28T04:17:00.193Z,99.90
2017-11-28T04:19:27.622Z,99.90
2017-11-28T04:21:55.034Z,99.90
2017-11-28T04:24:22.457Z,99.90
2017-11-28T04:26:49.885Z,99.90
2017-11-28T04:29:18.073Z,99.90
2017-11-28T04:31:45.495Z,99.90
2017-11-28T04:34:12.921Z,99.90
2017-11-28T04:36:40.333Z,99.90
2017-11-28T04:39:07.758Z,99.90
2017-11-28T04:41:35.173Z,99.90
2017-11-28T04:44:02.605Z,99.90
2017-11-28T04:46:30.032Z,99.90
2017-11-28T04:48:57.445Z,99.90
2017-11-28T04:51:24.938Z,99.90
2017-11-28T04:53:52.361Z,99.90
2017-11-28T04:56:19.777Z,99.90
2017-11-28T04:58:47.961Z,99.90
2017-11-28T05:01:15.385Z,99.90
2017-11-28T05:03:42.810Z,99.90
2017-11-28T05:06:10.398Z,99.90
2017-11-28T05:08:37.804Z,99.90
2017-11-28T05:11:05.229Z,99.90
2017-11-28T05:13:33.417Z,99.90
2017-11-28T05:16:00.849Z,99.90
2017-11-28T05:18:28.273Z,99.90
2017-11-28T05:20:55.716Z,99.90
2017-11-28T05:23:23.130Z,99.90
2017-11-28T05:25:51.338Z,99.90
2017-11-28T05:28:18.758Z,99.90
2017-11-28T05:30:46.953Z,99.90
2017-11-28T05:33:14.373Z,99.90
2017-11-28T05:35:41.801Z,99.90
2017-11-28T05:38:09.273Z,99.90
2017-11-28T05:40:38.596Z,99.90
2017-11-28T05:43:06.022Z,99.90
2017-11-28T05:45:33.465Z,99.90
2017-11-28T05:48:00.874Z,99.90
2017-11-28T05:50:28.302Z,99.90
2017-11-28T05:52:55.721Z,99.90
2017-11-28T05:55:23.150Z,99.90
2017-11-28T05:57:51.338Z,99.90
2017-11-28T06:00:19.541Z,99.90
2017-11-28T06:02:46.957Z,99.90
2017-11-28T06:05:15.166Z,99.90
2017-11-28T06:07:42.578Z,99.90
2017-11-28T06:10:09.997Z,99.90
2017-11-28T06:12:37.442Z,99.90
2017-11-28T06:15:04.849Z,99.90
2017-11-28T06:17:32.289Z,99.90
2017-11-28T06:19:59.707Z,99.90
2017-11-28T06:22:31.010Z,99.90
2017-11-28T06:24:58.438Z,99.90
2017-11-28T06:27:25.866Z,99.90
2017-11-28T06:29:53.291Z,99.90
2017-11-28T06:32:21.480Z,99.90
2017-11-28T06:34:48.910Z,99.90
2017-11-28T06:37:16.329Z,99.90
2017-11-28T06:39:43.758Z,99.90
2017-11-28T06:42:16.726Z,99.90
2017-11-28T06:44:44.932Z,99.90
2017-11-28T06:47:12.359Z,99.90
2017-11-28T06:49:40.546Z,99.90
2017-11-28T06:52:07.966Z,99.90
2017-11-28T06:54:35.405Z,99.90
2017-11-28T06:57:03.591Z,99.90
2017-11-28T06:59:31.018Z,99.90
2017-11-28T07:01:58.441Z,99.90
2017-11-28T07:04:25.867Z,99.90
2017-11-28T07:06:53.345Z,99.90
2017-11-28T07:09:21.517Z,99.90
2017-11-28T07:11:49.709Z,99.90
2017-11-28T07:14:17.129Z,99.90
2017-11-28T07:16:44.553Z,99.90
2017-11-28T07:19:11.982Z,99.90
2017-11-28T07:21:39.406Z,99.90
2017-11-28T07:24:06.825Z,99.90
2017-11-28T07:26:34.255Z,99.90
2017-11-28T07:29:01.678Z,99.90
2017-11-28T07:31:29.102Z,99.90
2017-11-28T07:33:56.525Z,99.90
2017-11-28T07:36:23.966Z,99.90
2017-11-28T07:38:52.161Z,99.90
2017-11-28T07:41:19.577Z,99.90
2017-11-28T07:43:47.007Z,99.90
2017-11-28T07:46:15.214Z,99.90
2017-11-28T07:48:42.640Z,99.90
2017-11-28T07:51:10.070Z,99.90
2017-11-28T07:53:37.497Z,99.90
2017-11-28T07:56:05.697Z,99.90
2017-11-28T07:58:33.119Z,99.90
2017-11-28T08:01:01.318Z,99.90
2017-11-28T08:03:29.955Z,99.90
2017-11-28T08:05:57.386Z,99.90
2017-11-28T08:08:24.819Z,99.90
2017-11-28T08:10:52.254Z,99.90
2017-11-28T08:13:20.494Z,99.90
2017-11-28T08:15:47.966Z,99.90
2017-11-28T08:18:15.392Z,99.90
2017-11-28T08:20:42.834Z,99.90
2017-11-28T08:23:10.246Z,99.90
2017-11-28T08:25:38.621Z,99.90
2017-11-28T08:28:06.042Z,99.90
2017-11-28T08:30:33.478Z,99.90
2017-11-28T08:33:00.898Z,99.90
2017-11-28T08:35:29.093Z,99.90
2017-11-28T08:37:56.529Z,99.90
2017-11-28T08:40:23.978Z,99.90
2017-11-28T08:42:52.350Z,99.90
2017-11-28T08:45:19.755Z,99.90
2017-11-28T08:47:47.677Z,99.90
2017-11-28T08:50:15.102Z,99.90
2017-11-28T08:52:42.544Z,99.90
2017-11-28T08:55:09.965Z,99.90
2017-11-28T08:57:38.338Z,99.90
2017-11-28T09:00:05.822Z,99.90
2017-11-28T09:02:34.008Z,99.90
2017-11-28T09:05:01.438Z,99.90
2017-11-28T09:07:29.638Z,99.90
2017-11-28T09:09:57.063Z,99.90
2017-11-28T09:12:25.299Z,99.90
2017-11-28T09:14:52.732Z,99.90
2017-11-28T09:17:20.162Z,99.90
2017-11-28T09:19:47.589Z,99.90
2017-11-28T09:22:15.036Z,99.90
2017-11-28T09:24:43.227Z,99.90
2017-11-28T09:27:10.665Z,99.90
2017-11-28T09:29:38.106Z,99.90
2017-11-28T09:32:05.530Z,99.90
2017-11-28T09:34:32.978Z,99.90
2017-11-28T09:37:01.167Z,99.90
2017-11-28T09:39:28.593Z,99.90
2017-11-28T09:41:56.783Z,99.90
2017-11-28T09:44:24.986Z,99.90
2017-11-28T09:46:52.402Z,99.90
2017-11-28T09:49:20.602Z,99.90
2017-11-28T09:51:48.018Z,99.90
2017-11-28T09:54:15.454Z,99.90
2017-11-28T09:56:42.873Z,99.90
2017-11-28T09:59:10.298Z,99.90
2017-11-28T10:01:37.726Z,99.90
2017-11-28T10:04:05.148Z,99.90
2017-11-28T10:06:32.577Z,99.80
2017-11-28T10:09:00.771Z,99.10
2017-11-28T10:11:28.194Z,99.10
2017-11-28T10:13:55.613Z,99.90
2017-11-28T10:16:23.054Z,99.90
2017-11-28T10:18:50.469Z,99.40
2017-11-28T10:21:18.750Z,99.90
2017-11-28T10:23:46.171Z,99.90
2017-11-28T10:26:13.609Z,99.90
2017-11-28T10:28:41.029Z,99.90
2017-11-28T10:31:09.223Z,99.10
2017-11-28T10:33:36.649Z,99.10
2017-11-28T10:36:04.832Z,98.80
2017-11-28T10:38:33.029Z,97.70
2017-11-28T10:41:00.458Z,97.70
2017-11-28T10:43:28.660Z,92.70
2017-11-28T10:45:56.077Z,92.60
2017-11-28T10:48:23.509Z,90.80
2017-11-28T10:50:50.947Z,86.00
2017-11-28T10:53:18.388Z,79.90
2017-11-28T10:55:45.806Z,77.20
2017-11-28T10:58:13.230Z,74.40
2017-11-28T11:00:40.670Z,78.20
2017-11-28T11:03:08.115Z,76.10
2017-11-28T11:05:36.299Z,76.20
2017-11-28T11:08:03.726Z,76.20
2017-11-28T11:10:31.933Z,77.70
2017-11-28T11:12:59.363Z,77.60
2017-11-28T11:15:27.564Z,82.20
2017-11-28T11:17:54.993Z,82.30
2017-11-28T11:20:22.449Z,83.50
2017-11-28T11:22:50.652Z,87.10
2017-11-28T11:25:18.091Z,87.10
2017-11-28T11:27:46.532Z,88.40
2017-11-28T11:30:13.974Z,88.10
2017-11-28T11:32:41.402Z,89.60
2017-11-28T11:35:09.957Z,89.40
2017-11-28T11:37:38.146Z,91.40
2017-11-28T11:40:05.579Z,91.40
2017-11-28T11:42:33.771Z,93.30
2017-11-28T11:45:01.198Z,93.30
2017-11-28T11:47:28.621Z,92.70
2017-11-28T11:49:56.041Z,93.10
2017-11-28T11:52:23.470Z,93.50
2017-11-28T11:54:50.923Z,93.80
2017-11-28T11:57:18.338Z,93.30
2017-11-28T11:59:45.762Z,93.60
2017-11-28T12:02:13.958Z,94.30
2017-11-28T12:04:41.377Z,94.30
2017-11-28T12:07:09.578Z,95.20
2017-11-28T12:09:36.998Z,95.20
2017-11-28T12:12:04.420Z,94.60
2017-11-28T12:14:31.846Z,94.20
2017-11-28T12:16:59.282Z,94.60
2017-11-28T12:19:28.192Z,93.80
2017-11-28T12:21:56.433Z,94.60
2017-11-28T12:24:23.844Z,94.50
2017-11-28T12:26:51.282Z,94.20
2017-11-28T12:29:18.708Z,95.30
2017-11-28T12:31:46.130Z,96.10
2017-11-28T12:34:13.553Z,95.90
2017-11-28T12:36:43.848Z,93.00
2017-11-28T12:39:11.276Z,93.00
2017-11-28T12:41:38.716Z,93.70
2017-11-28T12:44:06.134Z,93.30
2017-11-28T12:46:34.321Z,94.50
2017-11-28T12:49:01.763Z,94.50
2017-11-28T12:51:30.026Z,93.50
2017-11-28T12:53:58.226Z,94.00
2017-11-28T12:56:25.648Z,94.00
2017-11-28T12:58:53.108Z,94.40
2017-11-28T13:01:21.281Z,94.40
2017-11-28T13:03:50.814Z,94.40
2017-11-28T13:06:19.001Z,94.60
2017-11-28T13:08:46.418Z,94.60
2017-11-28T13:11:13.844Z,92.80
2017-11-28T13:13:41.269Z,93.20
2017-11-28T13:16:08.695Z,94.00
2017-11-28T13:18:36.114Z,94.50
2017-11-28T13:21:04.312Z,94.10
2017-11-28T13:23:31.765Z,94.10
2017-11-28T13:25:59.194Z,94.40
2017-11-28T13:28:26.609Z,94.60
2017-11-28T13:30:54.817Z,93.10
2017-11-28T13:33:22.239Z,93.10
2017-11-28T13:35:50.432Z,94.30
2017-11-28T13:38:17.849Z,94.30
2017-11-28T13:40:45.285Z,94.40
2017-11-28T13:43:12.707Z,94.80
2017-11-28T13:45:40.157Z,93.80
2017-11-28T13:48:07.576Z,93.40
2017-11-28T13:50:35.006Z,94.10
2017-11-28T13:53:02.432Z,94.60
2017-11-28T13:55:29.853Z,93.20
2017-11-28T13:57:57.290Z,94.20
2017-11-28T14:00:24.723Z,93.60
2017-11-28T14:02:52.151Z,91.10
2017-11-28T14:07:54.249Z,92.00
2017-11-28T14:10:21.670Z,92.00
2017-11-28T14:12:49.869Z,92.80
2017-11-28T14:15:17.367Z,92.80
2017-11-28T14:17:44.817Z,92.10
2017-11-28T14:20:16.865Z,93.30
2017-11-28T14:22:50.057Z,93.90
2017-11-28T14:25:17.481Z,93.50
2017-11-28T14:27:47.591Z,92.70
2017-11-28T14:30:18.610Z,92.70
2017-11-28T14:32:51.732Z,93.50
2017-11-28T14:35:25.503Z,93.30
2017-11-28T14:37:52.922Z,93.30
2017-11-28T14:40:20.354Z,93.90
2017-11-28T14:42:56.241Z,93.50
2017-11-28T14:48:23.570Z,92.40
2017-11-28T14:50:56.772Z,92.90
2017-11-28T14:53:30.668Z,93.60
2017-11-28T14:56:11.945Z,93.60
2017-11-28T14:58:45.018Z,93.10
2017-11-28T15:01:18.283Z,93.80
2017-11-28T15:03:46.610Z,93.40
2017-11-28T15:06:19.642Z,93.30
2017-11-28T15:08:52.783Z,94.00
2017-11-28T15:11:21.800Z,93.50
2017-11-28T15:13:55.625Z,94.00
2017-11-28T15:16:28.570Z,94.00
2017-11-28T15:19:16.662Z,95.00
2017-11-28T15:21:50.716Z,95.20
2017-11-28T15:24:20.053Z,94.40
2017-11-28T15:26:47.949Z,94.00
2017-11-28T15:29:34.047Z,94.40
2017-11-28T15:32:02.461Z,93.90
2017-11-28T15:34:29.885Z,93.60
2017-11-28T15:36:58.086Z,93.80
2017-11-28T15:39:25.524Z,93.90
2017-11-28T15:41:52.986Z,94.70
2017-11-28T15:44:20.462Z,95.30
2017-11-28T15:46:47.913Z,95.30
2017-11-28T15:49:15.329Z,95.50
2017-11-28T15:51:42.753Z,95.00
2017-11-28T15:54:10.951Z,95.90
2017-11-28T15:56:38.369Z,95.90
2017-11-28T15:59:05.828Z,95.70
2017-11-28T16:01:33.262Z,96.10
2017-11-28T16:04:00.699Z,96.00
2017-11-28T16:06:28.126Z,96.00
2017-11-28T16:08:56.324Z,95.90
2017-11-28T16:11:23.809Z,95.90
2017-11-28T16:13:51.234Z,95.90
2017-11-28T16:16:18.653Z,95.90
2017-11-28T16:18:46.942Z,96.00
2017-11-28T16:21:15.145Z,96.10
2017-11-28T16:23:42.576Z,96.10
2017-11-28T16:26:10.006Z,96.20
2017-11-28T16:28:37.452Z,96.20
2017-11-28T16:31:04.891Z,96.30
2017-11-28T16:33:32.377Z,96.40
2017-11-28T16:35:59.840Z,96.40
2017-11-28T16:38:27.271Z,96.50
2017-11-28T16:40:54.753Z,96.60
2017-11-28T16:43:22.201Z,96.80
2017-11-28T16:45:49.621Z,96.90
2017-11-28T16:48:17.059Z,96.80
2017-11-28T16:50:44.478Z,96.70
2017-11-28T16:53:11.914Z,96.60
2017-11-28T16:55:39.354Z,96.70
2017-11-28T16:58:06.769Z,96.80
2017-11-28T17:00:34.976Z,97.30
2017-11-28T17:03:02.391Z,97.30
2017-11-28T17:05:30.610Z,97.80
2017-11-28T17:07:58.042Z,97.80
2017-11-28T17:10:26.238Z,98.00
2017-11-28T17:12:53.674Z,98.00
2017-11-28T17:15:21.099Z,98.00
2017-11-28T17:17:48.573Z,97.90
2017-11-28T17:20:16.834Z,98.10
2017-11-28T17:22:44.271Z,98.00
2017-11-28T17:25:11.696Z,98.60
2017-11-28T17:27:39.147Z,98.50
2017-11-28T17:30:06.569Z,98.40
2017-11-28T17:32:34.005Z,97.80
2017-11-28T17:35:01.463Z,98.10
2017-11-28T17:37:28.898Z,98.20
2017-11-28T17:39:56.329Z,98.70
2017-11-28T17:42:23.808Z,98.90
2017-11-28T17:44:51.244Z,98.90
2017-11-28T17:47:18.665Z,98.90
2017-11-28T17:49:46.137Z,98.60
2017-11-28T17:52:14.321Z,98.40
2017-11-28T17:54:41.754Z,98.30
2017-11-28T17:57:09.186Z,98.40
2017-11-28T17:59:36.614Z,98.80
2017-11-28T18:02:04.042Z,98.70
2017-11-28T18:04:32.307Z,98.60
2017-11-28T18:06:59.716Z,98.60
2017-11-28T18:09:27.144Z,98.40
2017-11-28T18:11:54.580Z,98.50
2017-11-28T18:14:22.769Z,98.40
2017-11-28T18:16:50.194Z,98.40
2017-11-28T18:19:17.620Z,98.10
2017-11-28T18:21:45.046Z,97.80
2017-11-28T18:24:12.478Z,98.00
2017-11-28T18:26:40.680Z,97.90
2017-11-28T18:29:08.111Z,97.90
2017-11-28T18:31:36.373Z,98.10
2017-11-28T18:34:03.806Z,98.10
2017-11-28T18:36:31.245Z,98.30
2017-11-28T18:38:58.673Z,98.20
2017-11-28T18:41:26.107Z,98.20
2017-11-28T18:43:54.297Z,98.20
2017-11-28T18:46:22.510Z,98.00
2017-11-28T18:48:49.938Z,98.00
2017-11-28T18:51:17.362Z,97.90
2017-11-28T18:53:44.797Z,98.00
2017-11-28T18:56:12.228Z,97.90
2017-11-28T18:58:39.685Z,97.80
2017-11-28T19:01:07.097Z,97.90
2017-11-28T19:03:35.301Z,97.90
2017-11-28T19:06:02.730Z,97.80
2017-11-28T19:08:30.936Z,97.50
2017-11-28T19:10:58.366Z,97.50
2017-11-28T19:13:26.563Z,97.50
2017-11-28T19:15:54.017Z,97.50
2017-11-28T19:18:22.211Z,97.70
2017-11-28T19:20:49.633Z,97.70
2017-11-28T19:23:17.895Z,97.40
2017-11-28T19:25:45.330Z,97.40
2017-11-28T19:28:12.757Z,97.40
2017-11-28T19:30:40.193Z,97.40
2017-11-28T19:33:07.627Z,97.40
2017-11-28T19:35:35.831Z,97.40
2017-11-28T19:38:03.269Z,97.40
2017-11-28T19:40:30.721Z,97.50
2017-11-28T19:42:58.911Z,97.40
2017-11-28T19:45:26.363Z,97.40
2017-11-28T19:47:54.551Z,97.40
2017-11-28T19:50:21.990Z,97.40
2017-11-28T19:52:50.183Z,97.50
2017-11-28T19:55:17.618Z,97.50
2017-11-28T19:57:47.832Z,97.80
2017-11-28T20:00:15.267Z,97.80
2017-11-28T20:02:42.697Z,97.70
2017-11-28T20:05:10.129Z,97.50
2017-11-28T20:07:37.566Z,98.00
2017-11-28T20:10:05.785Z,97.70
2017-11-28T20:12:33.232Z,97.60
2017-11-28T20:15:00.670Z,97.60
2017-11-28T20:17:28.099Z,97.70
2017-11-28T20:19:55.546Z,97.80
2017-11-28T20:22:22.965Z,98.00
2017-11-28T20:24:50.406Z,98.00
2017-11-28T20:27:17.848Z,98.00
2017-11-28T20:29:46.056Z,98.00
2017-11-28T20:32:13.522Z,98.00
2017-11-28T20:34:40.946Z,98.20
2017-11-28T20:37:08.437Z,98.50
2017-11-28T20:39:35.885Z,98.80
2017-11-28T20:42:03.309Z,98.90
2017-11-28T20:44:30.746Z,99.10
2017-11-28T20:46:58.954Z,99.20
2017-11-28T20:49:32.276Z,99.20
2017-11-28T20:51:59.706Z,99.10
2017-11-28T20:54:27.146Z,99.10
2017-11-28T20:56:55.344Z,99.20
2017-11-28T20:59:22.820Z,99.20
2017-11-28T21:01:50.246Z,99.10
2017-11-28T21:04:17.685Z,99.00
2017-11-28T21:06:45.886Z,99.10
2017-11-28T21:09:13.353Z,99.10
2017-11-28T21:11:40.789Z,98.90
2017-11-28T21:14:08.233Z,98.90
2017-11-28T21:16:36.433Z,98.90
2017-11-28T21:19:03.865Z,98.90
2017-11-28T21:21:32.054Z,98.90
2017-11-28T21:23:59.519Z,98.90
2017-11-28T21:26:26.944Z,99.00
2017-11-28T21:28:55.192Z,98.90
2017-11-28T21:31:22.627Z,99.10
2017-11-28T21:33:50.065Z,99.00
2017-11-28T21:36:17.492Z,98.80
2017-11-28T21:38:45.689Z,98.60
2017-11-28T21:41:13.125Z,98.60
2017-11-28T21:43:41.329Z,98.50
2017-11-28T21:46:08.765Z,98.50
2017-11-28T21:48:36.953Z,98.40
2017-11-28T21:51:04.390Z,98.40
2017-11-28T21:53:32.612Z,98.20
2017-11-28T21:56:00.038Z,98.30
2017-11-28T21:58:27.475Z,97.90
2017-11-28T22:00:55.672Z,98.50
2017-11-28T22:03:23.102Z,98.50
2017-11-28T22:05:51.301Z,98.60
2017-11-28T22:08:18.738Z,98.60
2017-11-28T22:10:46.963Z,98.50
2017-11-28T22:13:14.381Z,98.50
2017-11-28T22:15:42.587Z,98.70
2017-11-28T22:18:10.031Z,98.70
2017-11-28T22:20:37.453Z,98.70
2017-11-28T22:23:04.885Z,98.70
2017-11-28T22:25:32.314Z,98.70
2017-11-28T22:28:00.466Z,98.50
2017-11-28T22:30:27.902Z,98.30
2017-11-28T22:32:56.274Z,98.40
2017-11-28T22:35:23.714Z,98.50
2017-11-28T22:37:51.160Z,98.40
2017-11-28T22:40:18.593Z,98.20
2017-11-28T22:42:46.035Z,98.10
2017-11-28T22:45:13.471Z,98.40
2017-11-28T22:47:41.683Z,98.40
2017-11-28T22:50:09.115Z,98.30
2017-11-28T22:52:36.555Z,98.20
2017-11-28T22:55:04.753Z,98.20
2017-11-28T22:57:32.181Z,98.20
2017-11-28T23:00:00.399Z,98.10
2017-11-28T23:02:27.834Z,98.00
2017-11-28T23:04:55.269Z,98.20
2017-11-28T23:07:23.461Z,98.10
2017-11-28T23:09:50.902Z,98.10
2017-11-28T23:12:19.095Z,97.90
2017-11-28T23:14:49.237Z,97.90
2017-11-28T23:17:16.681Z,97.60
2017-11-28T23:19:44.906Z,97.50
2017-11-28T23:22:12.327Z,97.50
2017-11-28T23:24:39.766Z,97.40
2017-11-28T23:27:07.196Z,97.60
2017-11-28T23:29:35.430Z,97.20
2017-11-28T23:32:02.857Z,97.20
2017-11-28T23:34:30.281Z,97.20
2017-11-28T23:36:57.714Z,97.10
2017-11-28T23:39:25.157Z,97.20
2017-11-28T23:41:52.587Z,97.50
2017-11-28T23:44:20.014Z,97.50
2017-11-28T23:46:48.221Z,97.50
2017-11-28T23:49:15.641Z,97.50
2017-11-28T23:51:43.073Z,97.60
2017-11-28T23:54:10.504Z,97.50
2017-11-28T23:56:37.933Z,97.60
2017-11-28T23:59:06.120Z,98.10
